Terminal Aerodrome Forecast
Issued by NWS Shreveport, LA

Home | Current Version | Previous Version | Text Only | Print | Product List | Glossary On
Versions: 1 2 3 4 5 6 7 8 9 10 11 12 13 14 15 16 17 18
000
FTUS44 KSHV 282323
TAFLFK
TAF
KLFK 282323Z 2900/2924 15010KT P6SM FEW050
      TEMPO 2904/2908 OVC010
     FM290800 14008KT P6SM OVC010
      TEMPO 2910/2914 BKN008
     FM291400 14012KT P6SM OVC015
     FM291700 15014G24KT P6SM VCTS OVC035CB=

USA.gov is the U.S. government's official web portal to all federal, state and local government web resources and services.